sensor_id;sensor_type;location;lat;lon;timestamp;P1;durP1;ratioP1;P2;durP2;ratioP2
2157;SDS011;41972;48.774;9.282;2022-09-20T00:01:09;14.93;;;12.90;;
2157;SDS011;41972;48.774;9.282;2022-09-20T00:03:37;13.87;;;12.87;;
2157;SDS011;41972;48.774;9.282;2022-09-20T00:06:05;13.33;;;12.30;;
2157;SDS011;41972;48.774;9.282;2022-09-20T00:08:32;11.83;;;10.93;;
2157;SDS011;41972;48.774;9.282;2022-09-20T00:11:02;11.97;;;11.00;;
2157;SDS011;41972;48.774;9.282;2022-09-20T00:13:33;14.43;;;13.33;;
2157;SDS011;41972;48.774;9.282;2022-09-20T00:16:02;11.13;;;10.00;;
2157;SDS011;41972;48.774;9.282;2022-09-20T00:18:32;13.50;;;10.50;;
2157;SDS011;41972;48.774;9.282;2022-09-20T00:20:58;11.17;;;10.17;;
2157;SDS011;41972;48.774;9.282;2022-09-20T00:23:23;12.37;;;11.43;;
2157;SDS011;41972;48.774;9.282;2022-09-20T00:25:55;12.90;;;11.70;;
2157;SDS011;41972;48.774;9.282;2022-09-20T00:28:23;12.87;;;11.87;;
2157;SDS011;41972;48.774;9.282;2022-09-20T00:30:49;11.60;;;10.60;;
2157;SDS011;41972;48.774;9.282;2022-09-20T00:33:16;11.93;;;10.90;;
2157;SDS011;41972;48.774;9.282;2022-09-20T00:35:42;12.33;;;11.33;;
2157;SDS011;41972;48.774;9.282;2022-09-20T00:38:08;11.83;;;10.90;;
2157;SDS011;41972;48.774;9.282;2022-09-20T00:40:35;19.63;;;18.07;;
2157;SDS011;41972;48.774;9.282;2022-09-20T00:43:01;12.60;;;11.40;;
2157;SDS011;41972;48.774;9.282;2022-09-20T00:45:28;13.60;;;12.63;;
2157;SDS011;41972;48.774;9.282;2022-09-20T00:51:02;12.83;;;11.67;;
2157;SDS011;41972;48.774;9.282;2022-09-20T00:53:23;11.50;;;10.50;;
2157;SDS011;41972;48.774;9.282;2022-09-20T00:55:56;13.00;;;12.03;;
2157;SDS011;41972;48.774;9.282;2022-09-20T00:58:29;12.43;;;11.33;;
2157;SDS011;41972;48.774;9.282;2022-09-20T01:01:00;12.30;;;11.30;;
2157;SDS011;41972;48.774;9.282;2022-09-20T01:03:28;13.13;;;12.00;;
2157;SDS011;41972;48.774;9.282;2022-09-20T01:05:56;12.67;;;11.53;;
2157;SDS011;41972;48.774;9.282;2022-09-20T01:08:25;12.73;;;11.53;;
2157;SDS011;41972;48.774;9.282;2022-09-20T01:10:51;13.07;;;11.90;;
2157;SDS011;41972;48.774;9.282;2022-09-20T01:13:17;12.60;;;11.60;;
2157;SDS011;41972;48.774;9.282;2022-09-20T01:15:43;11.90;;;10.83;;
2157;SDS011;41972;48.774;9.282;2022-09-20T01:18:12;11.77;;;10.87;;
2157;SDS011;41972;48.774;9.282;2022-09-20T01:20:39;12.63;;;11.63;;
2157;SDS011;41972;48.774;9.282;2022-09-20T01:23:12;12.47;;;11.37;;
2157;SDS011;41972;48.774;9.282;2022-09-20T01:25:53;12.83;;;11.93;;
2157;SDS011;41972;48.774;9.282;2022-09-20T01:28:45;11.97;;;10.87;;
2157;SDS011;41972;48.774;9.282;2022-09-20T01:36:03;12.93;;;11.83;;
2157;SDS011;41972;48.774;9.282;2022-09-20T01:41:15;13.27;;;12.17;;
2157;SDS011;41972;48.774;9.282;2022-09-20T01:44:02;14.30;;;12.17;;
2157;SDS011;41972;48.774;9.282;2022-09-20T01:46:42;16.23;;;15.03;;
2157;SDS011;41972;48.774;9.282;2022-09-20T01:55:06;12.90;;;11.63;;
2157;SDS011;41972;48.774;9.282;2022-09-20T02:04:01;10.27;;;9.27;;
2157;SDS011;41972;48.774;9.282;2022-09-20T02:17:40;13.50;;;11.50;;
2157;SDS011;41972;48.774;9.282;2022-09-20T02:20:32;10.40;;;9.60;;
2157;SDS011;41972;48.774;9.282;2022-09-20T02:26:13;12.13;;;10.03;;
2157;SDS011;41972;48.774;9.282;2022-09-20T02:31:56;10.93;;;10.03;;
2157;SDS011;41972;48.774;9.282;2022-09-20T02:35:07;9.90;;;9.07;;
2157;SDS011;41972;48.774;9.282;2022-09-20T02:40:25;11.33;;;10.33;;
2157;SDS011;41972;48.774;9.282;2022-09-20T02:48:41;16.73;;;15.67;;
2157;SDS011;41972;48.774;9.282;2022-09-20T02:54:10;10.97;;;10.00;;
2157;SDS011;41972;48.774;9.282;2022-09-20T03:02:14;11.60;;;10.57;;
2157;SDS011;41972;48.774;9.282;2022-09-20T03:05:06;11.43;;;10.43;;
2157;SDS011;41972;48.774;9.282;2022-09-20T03:10:51;10.63;;;9.73;;
2157;SDS011;41972;48.774;9.282;2022-09-20T03:22:17;12.87;;;11.87;;
2157;SDS011;41972;48.774;9.282;2022-09-20T03:27:29;10.77;;;9.80;;
2157;SDS011;41972;48.774;9.282;2022-09-20T03:40:51;11.07;;;9.90;;
2157;SDS011;41972;48.774;9.282;2022-09-20T04:03:02;8.53;;;7.37;;
2157;SDS011;41972;48.774;9.282;2022-09-20T04:11:49;10.70;;;9.70;;
2157;SDS011;41972;48.774;9.282;2022-09-20T04:19:46;11.23;;;8.23;;
2157;SDS011;41972;48.774;9.282;2022-09-20T04:22:20;12.97;;;9.50;;
2157;SDS011;41972;48.774;9.282;2022-09-20T04:27:59;13.03;;;11.70;;
2157;SDS011;41972;48.774;9.282;2022-09-20T04:30:33;9.83;;;8.87;;
2157;SDS011;41972;48.774;9.282;2022-09-20T04:33:11;9.50;;;8.37;;
2157;SDS011;41972;48.774;9.282;2022-09-20T04:38:50;11.23;;;10.23;;
2157;SDS011;41972;48.774;9.282;2022-09-20T04:41:45;11.10;;;9.63;;
2157;SDS011;41972;48.774;9.282;2022-09-20T04:45:02;8.70;;;7.97;;
2157;SDS011;41972;48.774;9.282;2022-09-20T04:50:34;9.87;;;7.50;;
2157;SDS011;41972;48.774;9.282;2022-09-20T04:53:09;10.00;;;8.53;;
2157;SDS011;41972;48.774;9.282;2022-09-20T04:55:45;10.53;;;9.23;;
2157;SDS011;41972;48.774;9.282;2022-09-20T05:14:38;12.37;;;11.17;;
2157;SDS011;41972;48.774;9.282;2022-09-20T05:25:27;12.80;;;11.70;;
2157;SDS011;41972;48.774;9.282;2022-09-20T05:28:00;13.80;;;12.03;;
2157;SDS011;41972;48.774;9.282;2022-09-20T05:30:47;14.13;;;12.70;;
2157;SDS011;41972;48.774;9.282;2022-09-20T05:33:21;12.83;;;11.70;;
2157;SDS011;41972;48.774;9.282;2022-09-20T05:36:08;15.97;;;14.57;;
2157;SDS011;41972;48.774;9.282;2022-09-20T05:41:58;14.80;;;12.40;;
2157;SDS011;41972;48.774;9.282;2022-09-20T05:44:49;12.40;;;11.17;;
2157;SDS011;41972;48.774;9.282;2022-09-20T05:47:39;11.50;;;10.50;;
2157;SDS011;41972;48.774;9.282;2022-09-20T05:53:26;15.67;;;10.87;;
2157;SDS011;41972;48.774;9.282;2022-09-20T05:56:25;14.20;;;11.43;;
2157;SDS011;41972;48.774;9.282;2022-09-20T06:04:54;13.90;;;13.00;;
2157;SDS011;41972;48.774;9.282;2022-09-20T06:08:00;12.80;;;11.77;;
2157;SDS011;41972;48.774;9.282;2022-09-20T06:10:51;15.93;;;14.73;;
2157;SDS011;41972;48.774;9.282;2022-09-20T06:16:09;12.87;;;11.77;;
2157;SDS011;41972;48.774;9.282;2022-09-20T06:19:10;11.40;;;9.80;;
2157;SDS011;41972;48.774;9.282;2022-09-20T06:27:22;11.10;;;10.00;;
2157;SDS011;41972;48.774;9.282;2022-09-20T06:29:57;9.60;;;8.60;;
2157;SDS011;41972;48.774;9.282;2022-09-20T06:32:25;10.73;;;9.67;;
2157;SDS011;41972;48.774;9.282;2022-09-20T06:34:51;9.70;;;8.80;;
2157;SDS011;41972;48.774;9.282;2022-09-20T06:43:04;9.13;;;8.33;;
2157;SDS011;41972;48.774;9.282;2022-09-20T06:45:30;10.00;;;7.93;;
2157;SDS011;41972;48.774;9.282;2022-09-20T06:47:56;9.70;;;6.93;;
2157;SDS011;41972;48.774;9.282;2022-09-20T06:50:21;7.93;;;6.80;;
2157;SDS011;41972;48.774;9.282;2022-09-20T06:52:47;8.47;;;6.07;;
2157;SDS011;41972;48.774;9.282;2022-09-20T06:55:21;9.00;;;8.07;;
2157;SDS011;41972;48.774;9.282;2022-09-20T06:57:53;10.30;;;9.33;;
2157;SDS011;41972;48.774;9.282;2022-09-20T07:00:19;8.67;;;7.90;;
2157;SDS011;41972;48.774;9.282;2022-09-20T07:02:45;8.27;;;7.47;;
2157;SDS011;41972;48.774;9.282;2022-09-20T07:05:13;8.37;;;7.67;;
2157;SDS011;41972;48.774;9.282;2022-09-20T07:07:40;10.43;;;8.33;;
2157;SDS011;41972;48.774;9.282;2022-09-20T07:10:08;7.77;;;7.10;;
2157;SDS011;41972;48.774;9.282;2022-09-20T07:12:35;9.87;;;9.00;;
2157;SDS011;41972;48.774;9.282;2022-09-20T07:15:01;13.70;;;12.37;;
2157;SDS011;41972;48.774;9.282;2022-09-20T07:17:27;9.30;;;8.47;;
2157;SDS011;41972;48.774;9.282;2022-09-20T07:19:52;10.90;;;9.40;;
2157;SDS011;41972;48.774;9.282;2022-09-20T07:22:20;12.03;;;9.27;;
2157;SDS011;41972;48.774;9.282;2022-09-20T07:24:46;8.43;;;7.50;;
2157;SDS011;41972;48.774;9.282;2022-09-20T07:27:12;8.43;;;7.63;;
2157;SDS011;41972;48.774;9.282;2022-09-20T07:29:38;9.93;;;9.20;;
2157;SDS011;41972;48.774;9.282;2022-09-20T07:32:05;14.20;;;8.87;;
2157;SDS011;41972;48.774;9.282;2022-09-20T07:34:30;9.23;;;8.20;;
2157;SDS011;41972;48.774;9.282;2022-09-20T07:36:56;9.83;;;8.93;;
2157;SDS011;41972;48.774;9.282;2022-09-20T07:39:23;8.63;;;7.00;;
2157;SDS011;41972;48.774;9.282;2022-09-20T07:41:49;8.43;;;7.63;;
2157;SDS011;41972;48.774;9.282;2022-09-20T07:44:15;9.10;;;8.20;;
2157;SDS011;41972;48.774;9.282;2022-09-20T07:46:55;8.83;;;8.00;;
2157;SDS011;41972;48.774;9.282;2022-09-20T07:49:23;8.17;;;7.47;;
2157;SDS011;41972;48.774;9.282;2022-09-20T07:51:51;10.57;;;7.60;;
2157;SDS011;41972;48.774;9.282;2022-09-20T07:54:17;8.50;;;7.20;;
2157;SDS011;41972;48.774;9.282;2022-09-20T07:56:44;8.83;;;7.77;;
2157;SDS011;41972;48.774;9.282;2022-09-20T07:59:10;8.60;;;7.47;;
2157;SDS011;41972;48.774;9.282;2022-09-20T08:01:36;12.77;;;11.87;;
2157;SDS011;41972;48.774;9.282;2022-09-20T08:04:03;10.90;;;10.00;;
2157;SDS011;41972;48.774;9.282;2022-09-20T08:06:30;7.83;;;6.87;;
2157;SDS011;41972;48.774;9.282;2022-09-20T08:08:55;7.47;;;6.00;;
2157;SDS011;41972;48.774;9.282;2022-09-20T08:11:22;7.60;;;6.80;;
2157;SDS011;41972;48.774;9.282;2022-09-20T08:13:50;6.60;;;5.90;;
2157;SDS011;41972;48.774;9.282;2022-09-20T08:16:17;9.70;;;6.60;;
2157;SDS011;41972;48.774;9.282;2022-09-20T08:19:04;8.93;;;6.43;;
2157;SDS011;41972;48.774;9.282;2022-09-20T08:21:30;9.73;;;6.90;;
2157;SDS011;41972;48.774;9.282;2022-09-20T08:23:57;7.57;;;6.20;;
2157;SDS011;41972;48.774;9.282;2022-09-20T08:26:24;9.40;;;6.00;;
2157;SDS011;41972;48.774;9.282;2022-09-20T08:28:51;6.73;;;6.00;;
2157;SDS011;41972;48.774;9.282;2022-09-20T08:31:20;10.03;;;6.00;;
2157;SDS011;41972;48.774;9.282;2022-09-20T08:33:47;7.83;;;4.87;;
2157;SDS011;41972;48.774;9.282;2022-09-20T08:36:18;11.30;;;5.67;;
2157;SDS011;41972;48.774;9.282;2022-09-20T08:38:45;8.50;;;4.57;;
2157;SDS011;41972;48.774;9.282;2022-09-20T08:46:42;8.87;;;8.17;;
2157;SDS011;41972;48.774;9.282;2022-09-20T08:49:25;6.80;;;6.10;;
2157;SDS011;41972;48.774;9.282;2022-09-20T08:51:52;6.23;;;5.17;;
2157;SDS011;41972;48.774;9.282;2022-09-20T08:54:21;8.10;;;5.70;;
2157;SDS011;41972;48.774;9.282;2022-09-20T08:56:49;6.40;;;5.17;;
2157;SDS011;41972;48.774;9.282;2022-09-20T08:59:15;5.90;;;5.07;;
2157;SDS011;41972;48.774;9.282;2022-09-20T09:01:44;6.80;;;6.07;;
2157;SDS011;41972;48.774;9.282;2022-09-20T09:04:15;6.63;;;5.40;;
2157;SDS011;41972;48.774;9.282;2022-09-20T09:06:43;8.20;;;6.93;;
2157;SDS011;41972;48.774;9.282;2022-09-20T09:09:13;6.37;;;5.80;;
2157;SDS011;41972;48.774;9.282;2022-09-20T09:11:52;5.07;;;4.03;;
2157;SDS011;41972;48.774;9.282;2022-09-20T09:14:23;6.10;;;4.63;;
2157;SDS011;41972;48.774;9.282;2022-09-20T09:17:10;6.27;;;3.90;;
2157;SDS011;41972;48.774;9.282;2022-09-20T09:19:47;5.90;;;4.10;;
2157;SDS011;41972;48.774;9.282;2022-09-20T09:22:30;6.40;;;5.00;;
2157;SDS011;41972;48.774;9.282;2022-09-20T09:25:26;9.33;;;5.20;;
2157;SDS011;41972;48.774;9.282;2022-09-20T09:28:02;12.60;;;9.73;;
2157;SDS011;41972;48.774;9.282;2022-09-20T09:35:59;5.50;;;4.20;;
2157;SDS011;41972;48.774;9.282;2022-09-20T09:38:38;5.93;;;5.07;;
2157;SDS011;41972;48.774;9.282;2022-09-20T09:41:06;8.87;;;5.77;;
2157;SDS011;41972;48.774;9.282;2022-09-20T09:43:57;6.73;;;5.03;;
2157;SDS011;41972;48.774;9.282;2022-09-20T09:46:34;5.50;;;5.00;;
2157;SDS011;41972;48.774;9.282;2022-09-20T09:49:14;5.80;;;5.30;;
2157;SDS011;41972;48.774;9.282;2022-09-20T09:51:41;5.10;;;4.67;;
2157;SDS011;41972;48.774;9.282;2022-09-20T09:54:28;6.43;;;4.57;;
2157;SDS011;41972;48.774;9.282;2022-09-20T10:02:19;5.83;;;5.00;;
2157;SDS011;41972;48.774;9.282;2022-09-20T10:05:13;7.77;;;4.40;;
2157;SDS011;41972;48.774;9.282;2022-09-20T10:16:46;5.83;;;4.27;;
2157;SDS011;41972;48.774;9.282;2022-09-20T10:22:11;5.77;;;3.70;;
2157;SDS011;41972;48.774;9.282;2022-09-20T10:25:00;7.40;;;6.07;;
2157;SDS011;41972;48.774;9.282;2022-09-20T10:30:30;5.30;;;3.77;;
2157;SDS011;41972;48.774;9.282;2022-09-20T10:33:22;6.93;;;3.07;;
2157;SDS011;41972;48.774;9.282;2022-09-20T10:38:56;4.53;;;2.50;;
2157;SDS011;41972;48.774;9.282;2022-09-20T10:41:33;5.43;;;3.67;;
2157;SDS011;41972;48.774;9.282;2022-09-20T10:44:48;6.10;;;4.07;;
2157;SDS011;41972;48.774;9.282;2022-09-20T10:47:32;5.00;;;4.60;;
2157;SDS011;41972;48.774;9.282;2022-09-20T10:50:25;5.40;;;3.90;;
2157;SDS011;41972;48.774;9.282;2022-09-20T10:53:11;6.47;;;3.63;;
2157;SDS011;41972;48.774;9.282;2022-09-20T10:56:11;6.40;;;3.93;;
2157;SDS011;41972;48.774;9.282;2022-09-20T11:01:49;5.23;;;3.90;;
2157;SDS011;41972;48.774;9.282;2022-09-20T11:08:08;8.80;;;8.00;;
2157;SDS011;41972;48.774;9.282;2022-09-20T11:10:43;5.80;;;5.30;;
2157;SDS011;41972;48.774;9.282;2022-09-20T11:18:28;5.83;;;4.70;;
2157;SDS011;41972;48.774;9.282;2022-09-20T11:21:21;6.60;;;4.50;;
2157;SDS011;41972;48.774;9.282;2022-09-20T11:24:14;4.70;;;3.47;;
2157;SDS011;41972;48.774;9.282;2022-09-20T11:30:13;6.70;;;4.10;;
2157;SDS011;41972;48.774;9.282;2022-09-20T11:35:33;5.63;;;4.23;;
2157;SDS011;41972;48.774;9.282;2022-09-20T11:40:44;6.53;;;4.70;;
2157;SDS011;41972;48.774;9.282;2022-09-20T11:43:14;5.70;;;4.90;;
2157;SDS011;41972;48.774;9.282;2022-09-20T11:45:42;7.73;;;4.67;;
2157;SDS011;41972;48.774;9.282;2022-09-20T11:48:16;5.33;;;3.93;;
2157;SDS011;41972;48.774;9.282;2022-09-20T11:53:59;8.53;;;4.23;;
2157;SDS011;41972;48.774;9.282;2022-09-20T11:56:52;5.63;;;4.93;;
2157;SDS011;41972;48.774;9.282;2022-09-20T11:59:42;6.60;;;3.20;;
2157;SDS011;41972;48.774;9.282;2022-09-20T12:02:18;6.73;;;3.60;;
2157;SDS011;41972;48.774;9.282;2022-09-20T12:05:47;6.30;;;4.20;;
2157;SDS011;41972;48.774;9.282;2022-09-20T12:08:51;5.70;;;3.90;;
2157;SDS011;41972;48.774;9.282;2022-09-20T12:10:56;6.37;;;3.97;;
2157;SDS011;41972;48.774;9.282;2022-09-20T12:13:24;5.50;;;4.90;;
2157;SDS011;41972;48.774;9.282;2022-09-20T12:19:00;4.60;;;4.10;;
2157;SDS011;41972;48.774;9.282;2022-09-20T12:21:28;6.33;;;4.40;;
2157;SDS011;41972;48.774;9.282;2022-09-20T12:36:39;4.90;;;4.50;;
2157;SDS011;41972;48.774;9.282;2022-09-20T12:44:31;5.67;;;5.17;;
2157;SDS011;41972;48.774;9.282;2022-09-20T13:08:31;5.30;;;4.90;;
2157;SDS011;41972;48.774;9.282;2022-09-20T13:11:18;5.83;;;5.23;;
2157;SDS011;41972;48.774;9.282;2022-09-20T13:16:30;6.67;;;5.97;;
2157;SDS011;41972;48.774;9.282;2022-09-20T13:21:33;4.90;;;3.57;;
2157;SDS011;41972;48.774;9.282;2022-09-20T13:24:02;5.90;;;5.30;;
2157;SDS011;41972;48.774;9.282;2022-09-20T13:26:32;7.43;;;5.30;;
2157;SDS011;41972;48.774;9.282;2022-09-20T13:29:03;4.77;;;4.37;;
2157;SDS011;41972;48.774;9.282;2022-09-20T13:31:34;4.93;;;4.17;;
2157;SDS011;41972;48.774;9.282;2022-09-20T13:36:44;4.93;;;4.43;;
2157;SDS011;41972;48.774;9.282;2022-09-20T13:39:28;5.37;;;4.73;;
2157;SDS011;41972;48.774;9.282;2022-09-20T13:41:59;4.87;;;4.37;;
2157;SDS011;41972;48.774;9.282;2022-09-20T13:44:31;3.97;;;3.67;;
2157;SDS011;41972;48.774;9.282;2022-09-20T13:46:58;6.53;;;6.00;;
2157;SDS011;41972;48.774;9.282;2022-09-20T13:49:24;5.60;;;5.20;;
2157;SDS011;41972;48.774;9.282;2022-09-20T13:51:55;8.70;;;4.67;;
2157;SDS011;41972;48.774;9.282;2022-09-20T13:54:27;12.53;;;9.10;;
2157;SDS011;41972;48.774;9.282;2022-09-20T13:56:55;6.40;;;5.90;;
2157;SDS011;41972;48.774;9.282;2022-09-20T13:59:29;7.43;;;6.93;;
2157;SDS011;41972;48.774;9.282;2022-09-20T14:02:04;7.07;;;6.47;;
2157;SDS011;41972;48.774;9.282;2022-09-20T14:04:59;6.07;;;4.83;;
2157;SDS011;41972;48.774;9.282;2022-09-20T14:07:27;5.40;;;4.70;;
2157;SDS011;41972;48.774;9.282;2022-09-20T14:09:55;5.73;;;5.33;;
2157;SDS011;41972;48.774;9.282;2022-09-20T14:12:24;6.17;;;5.67;;
2157;SDS011;41972;48.774;9.282;2022-09-20T14:14:51;8.83;;;5.23;;
2157;SDS011;41972;48.774;9.282;2022-09-20T14:17:18;5.57;;;5.17;;
2157;SDS011;41972;48.774;9.282;2022-09-20T14:19:46;5.67;;;4.73;;
2157;SDS011;41972;48.774;9.282;2022-09-20T14:22:24;6.00;;;5.57;;
2157;SDS011;41972;48.774;9.282;2022-09-20T14:24:59;7.70;;;6.03;;
2157;SDS011;41972;48.774;9.282;2022-09-20T14:27:26;6.07;;;5.57;;
2157;SDS011;41972;48.774;9.282;2022-09-20T14:29:55;11.70;;;10.87;;
2157;SDS011;41972;48.774;9.282;2022-09-20T14:32:23;7.70;;;4.53;;
2157;SDS011;41972;48.774;9.282;2022-09-20T14:40:13;4.93;;;4.40;;
2157;SDS011;41972;48.774;9.282;2022-09-20T14:42:46;5.03;;;4.50;;
2157;SDS011;41972;48.774;9.282;2022-09-20T14:45:33;6.27;;;5.60;;
2157;SDS011;41972;48.774;9.282;2022-09-20T14:48:27;6.30;;;5.80;;
2157;SDS011;41972;48.774;9.282;2022-09-20T14:53:43;4.87;;;4.17;;
2157;SDS011;41972;48.774;9.282;2022-09-20T14:56:11;5.93;;;4.30;;
2157;SDS011;41972;48.774;9.282;2022-09-20T15:01:27;7.77;;;7.10;;
2157;SDS011;41972;48.774;9.282;2022-09-20T15:03:53;3.90;;;3.60;;
2157;SDS011;41972;48.774;9.282;2022-09-20T15:06:20;3.70;;;3.40;;
2157;SDS011;41972;48.774;9.282;2022-09-20T15:08:46;3.77;;;3.43;;
2157;SDS011;41972;48.774;9.282;2022-09-20T15:11:15;4.13;;;3.50;;
2157;SDS011;41972;48.774;9.282;2022-09-20T15:13:42;4.40;;;3.83;;
2157;SDS011;41972;48.774;9.282;2022-09-20T15:16:08;5.60;;;4.07;;
2157;SDS011;41972;48.774;9.282;2022-09-20T15:18:38;3.80;;;3.47;;
2157;SDS011;41972;48.774;9.282;2022-09-20T15:21:05;3.80;;;3.50;;
2157;SDS011;41972;48.774;9.282;2022-09-20T15:23:31;3.70;;;3.33;;
2157;SDS011;41972;48.774;9.282;2022-09-20T15:25:57;4.70;;;3.33;;
2157;SDS011;41972;48.774;9.282;2022-09-20T15:28:24;6.07;;;3.87;;
2157;SDS011;41972;48.774;9.282;2022-09-20T15:30:50;3.93;;;3.50;;
2157;SDS011;41972;48.774;9.282;2022-09-20T15:33:17;3.90;;;3.20;;
2157;SDS011;41972;48.774;9.282;2022-09-20T15:35:44;6.70;;;3.07;;
2157;SDS011;41972;48.774;9.282;2022-09-20T15:38:12;3.23;;;2.93;;
2157;SDS011;41972;48.774;9.282;2022-09-20T15:40:40;4.50;;;4.10;;
2157;SDS011;41972;48.774;9.282;2022-09-20T15:43:06;2.83;;;2.63;;
2157;SDS011;41972;48.774;9.282;2022-09-20T15:45:35;4.10;;;3.80;;
2157;SDS011;41972;48.774;9.282;2022-09-20T15:48:13;4.50;;;3.63;;
2157;SDS011;41972;48.774;9.282;2022-09-20T15:50:38;3.77;;;3.47;;
2157;SDS011;41972;48.774;9.282;2022-09-20T15:53:06;4.30;;;3.97;;
2157;SDS011;41972;48.774;9.282;2022-09-20T15:55:34;3.27;;;2.97;;
2157;SDS011;41972;48.774;9.282;2022-09-20T15:58:00;3.40;;;3.10;;
2157;SDS011;41972;48.774;9.282;2022-09-20T16:00:27;4.40;;;4.00;;
2157;SDS011;41972;48.774;9.282;2022-09-20T16:02:53;2.57;;;2.37;;
2157;SDS011;41972;48.774;9.282;2022-09-20T16:05:18;3.00;;;2.70;;
2157;SDS011;41972;48.774;9.282;2022-09-20T16:07:44;3.83;;;3.00;;
2157;SDS011;41972;48.774;9.282;2022-09-20T16:10:10;3.13;;;2.83;;
2157;SDS011;41972;48.774;9.282;2022-09-20T16:12:35;3.57;;;3.27;;
2157;SDS011;41972;48.774;9.282;2022-09-20T16:15:01;3.00;;;2.80;;
2157;SDS011;41972;48.774;9.282;2022-09-20T16:17:27;3.53;;;3.23;;
2157;SDS011;41972;48.774;9.282;2022-09-20T16:20:11;4.90;;;4.50;;
2157;SDS011;41972;48.774;9.282;2022-09-20T16:22:36;4.30;;;4.00;;
2157;SDS011;41972;48.774;9.282;2022-09-20T16:25:02;4.87;;;4.47;;
2157;SDS011;41972;48.774;9.282;2022-09-20T16:27:30;4.30;;;3.97;;
2157;SDS011;41972;48.774;9.282;2022-09-20T16:29:58;4.70;;;4.33;;
2157;SDS011;41972;48.774;9.282;2022-09-20T16:32:23;4.23;;;3.17;;
2157;SDS011;41972;48.774;9.282;2022-09-20T16:34:49;4.70;;;3.70;;
2157;SDS011;41972;48.774;9.282;2022-09-20T16:37:16;4.37;;;4.07;;
2157;SDS011;41972;48.774;9.282;2022-09-20T16:39:41;7.03;;;4.10;;
2157;SDS011;41972;48.774;9.282;2022-09-20T16:42:09;4.30;;;4.00;;
2157;SDS011;41972;48.774;9.282;2022-09-20T16:44:38;3.73;;;3.53;;
2157;SDS011;41972;48.774;9.282;2022-09-20T16:47:07;4.10;;;3.80;;
2157;SDS011;41972;48.774;9.282;2022-09-20T16:49:35;5.87;;;3.47;;
2157;SDS011;41972;48.774;9.282;2022-09-20T16:52:05;3.43;;;3.23;;
2157;SDS011;41972;48.774;9.282;2022-09-20T16:54:32;2.87;;;2.67;;
2157;SDS011;41972;48.774;9.282;2022-09-20T16:56:57;4.10;;;3.80;;
2157;SDS011;41972;48.774;9.282;2022-09-20T16:59:23;6.13;;;3.40;;
2157;SDS011;41972;48.774;9.282;2022-09-20T17:01:49;3.63;;;3.33;;
2157;SDS011;41972;48.774;9.282;2022-09-20T17:04:15;4.37;;;3.97;;
2157;SDS011;41972;48.774;9.282;2022-09-20T17:06:42;4.40;;;4.10;;
2157;SDS011;41972;48.774;9.282;2022-09-20T17:09:09;4.23;;;3.83;;
2157;SDS011;41972;48.774;9.282;2022-09-20T17:11:36;4.60;;;4.10;;
2157;SDS011;41972;48.774;9.282;2022-09-20T17:14:04;3.83;;;3.37;;
2157;SDS011;41972;48.774;9.282;2022-09-20T17:16:31;4.20;;;3.80;;
2157;SDS011;41972;48.774;9.282;2022-09-20T17:19:02;4.43;;;4.00;;
2157;SDS011;41972;48.774;9.282;2022-09-20T17:21:33;3.57;;;3.37;;
2157;SDS011;41972;48.774;9.282;2022-09-20T17:24:00;5.47;;;4.27;;
2157;SDS011;41972;48.774;9.282;2022-09-20T17:26:28;5.30;;;4.90;;
2157;SDS011;41972;48.774;9.282;2022-09-20T17:28:57;4.67;;;2.73;;
2157;SDS011;41972;48.774;9.282;2022-09-20T17:31:26;4.43;;;4.03;;
2157;SDS011;41972;48.774;9.282;2022-09-20T17:33:56;6.27;;;5.70;;
2157;SDS011;41972;48.774;9.282;2022-09-20T17:36:25;6.33;;;5.87;;
2157;SDS011;41972;48.774;9.282;2022-09-20T17:38:57;4.00;;;3.63;;
2157;SDS011;41972;48.774;9.282;2022-09-20T17:41:24;7.57;;;3.90;;
2157;SDS011;41972;48.774;9.282;2022-09-20T17:43:54;4.30;;;3.93;;
2157;SDS011;41972;48.774;9.282;2022-09-20T17:46:25;4.47;;;4.07;;
2157;SDS011;41972;48.774;9.282;2022-09-20T17:49:05;4.87;;;4.47;;
2157;SDS011;41972;48.774;9.282;2022-09-20T17:51:34;6.47;;;5.10;;
2157;SDS011;41972;48.774;9.282;2022-09-20T17:54:04;5.57;;;5.17;;
2157;SDS011;41972;48.774;9.282;2022-09-20T17:56:31;5.47;;;4.97;;
2157;SDS011;41972;48.774;9.282;2022-09-20T17:58:58;6.23;;;5.83;;
2157;SDS011;41972;48.774;9.282;2022-09-20T18:01:25;6.70;;;4.90;;
2157;SDS011;41972;48.774;9.282;2022-09-20T18:03:51;8.03;;;4.53;;
2157;SDS011;41972;48.774;9.282;2022-09-20T18:06:21;6.00;;;5.50;;
2157;SDS011;41972;48.774;9.282;2022-09-20T18:08:50;5.60;;;5.10;;
2157;SDS011;41972;48.774;9.282;2022-09-20T18:11:18;5.30;;;4.80;;
2157;SDS011;41972;48.774;9.282;2022-09-20T18:13:45;5.80;;;5.33;;
2157;SDS011;41972;48.774;9.282;2022-09-20T18:16:11;5.57;;;5.10;;
2157;SDS011;41972;48.774;9.282;2022-09-20T18:18:39;7.13;;;6.50;;
2157;SDS011;41972;48.774;9.282;2022-09-20T18:21:21;5.73;;;5.23;;
2157;SDS011;41972;48.774;9.282;2022-09-20T18:23:48;5.80;;;4.93;;
2157;SDS011;41972;48.774;9.282;2022-09-20T18:26:18;4.87;;;4.57;;
2157;SDS011;41972;48.774;9.282;2022-09-20T18:28:45;5.77;;;4.63;;
2157;SDS011;41972;48.774;9.282;2022-09-20T18:31:11;8.23;;;5.30;;
2157;SDS011;41972;48.774;9.282;2022-09-20T18:33:37;6.20;;;5.60;;
2157;SDS011;41972;48.774;9.282;2022-09-20T18:36:03;6.80;;;5.80;;
2157;SDS011;41972;48.774;9.282;2022-09-20T18:38:29;6.80;;;5.97;;
2157;SDS011;41972;48.774;9.282;2022-09-20T18:40:57;7.23;;;6.03;;
2157;SDS011;41972;48.774;9.282;2022-09-20T18:43:33;6.33;;;5.30;;
2157;SDS011;41972;48.774;9.282;2022-09-20T18:45:59;7.73;;;6.50;;
2157;SDS011;41972;48.774;9.282;2022-09-20T18:48:25;8.07;;;6.30;;
2157;SDS011;41972;48.774;9.282;2022-09-20T18:50:59;5.93;;;5.50;;
2157;SDS011;41972;48.774;9.282;2022-09-20T18:53:27;6.03;;;5.23;;
2157;SDS011;41972;48.774;9.282;2022-09-20T18:55:54;7.03;;;5.00;;
2157;SDS011;41972;48.774;9.282;2022-09-20T18:58:21;8.70;;;5.50;;
2157;SDS011;41972;48.774;9.282;2022-09-20T19:00:49;6.10;;;5.30;;
2157;SDS011;41972;48.774;9.282;2022-09-20T19:03:26;5.50;;;5.10;;
2157;SDS011;41972;48.774;9.282;2022-09-20T19:06:11;7.03;;;5.27;;
2157;SDS011;41972;48.774;9.282;2022-09-20T19:08:41;8.90;;;5.30;;
2157;SDS011;41972;48.774;9.282;2022-09-20T19:11:16;7.00;;;5.40;;
2157;SDS011;41972;48.774;9.282;2022-09-20T19:14:04;6.67;;;5.97;;
2157;SDS011;41972;48.774;9.282;2022-09-20T19:16:53;6.57;;;5.60;;
2157;SDS011;41972;48.774;9.282;2022-09-20T19:22:28;5.93;;;5.43;;
2157;SDS011;41972;48.774;9.282;2022-09-20T19:25:19;6.27;;;5.67;;
2157;SDS011;41972;48.774;9.282;2022-09-20T19:27:49;8.13;;;5.70;;
2157;SDS011;41972;48.774;9.282;2022-09-20T19:30:15;7.03;;;6.43;;
2157;SDS011;41972;48.774;9.282;2022-09-20T19:32:43;10.13;;;8.70;;
2157;SDS011;41972;48.774;9.282;2022-09-20T19:35:14;7.70;;;6.90;;
2157;SDS011;41972;48.774;9.282;2022-09-20T19:40:45;5.70;;;5.20;;
2157;SDS011;41972;48.774;9.282;2022-09-20T19:43:24;7.17;;;6.60;;
2157;SDS011;41972;48.774;9.282;2022-09-20T19:46:30;7.43;;;5.77;;
2157;SDS011;41972;48.774;9.282;2022-09-20T19:49:14;6.80;;;6.20;;
2157;SDS011;41972;48.774;9.282;2022-09-20T19:51:44;7.37;;;6.70;;
2157;SDS011;41972;48.774;9.282;2022-09-20T19:54:10;10.67;;;6.20;;
2157;SDS011;41972;48.774;9.282;2022-09-20T19:56:52;7.23;;;6.50;;
2157;SDS011;41972;48.774;9.282;2022-09-20T19:59:20;7.50;;;6.80;;
2157;SDS011;41972;48.774;9.282;2022-09-20T20:01:47;7.53;;;5.80;;
2157;SDS011;41972;48.774;9.282;2022-09-20T20:04:13;7.63;;;6.50;;
2157;SDS011;41972;48.774;9.282;2022-09-20T20:06:53;11.57;;;6.47;;
2157;SDS011;41972;48.774;9.282;2022-09-20T20:09:35;7.07;;;6.37;;
2157;SDS011;41972;48.774;9.282;2022-09-20T20:20:02;7.00;;;6.40;;
2157;SDS011;41972;48.774;9.282;2022-09-20T20:22:55;6.90;;;6.30;;
2157;SDS011;41972;48.774;9.282;2022-09-20T20:25:43;8.23;;;5.97;;
2157;SDS011;41972;48.774;9.282;2022-09-20T20:28:31;8.00;;;6.87;;
2157;SDS011;41972;48.774;9.282;2022-09-20T20:30:58;8.87;;;6.80;;
2157;SDS011;41972;48.774;9.282;2022-09-20T20:33:26;7.43;;;6.83;;
2157;SDS011;41972;48.774;9.282;2022-09-20T20:35:55;7.57;;;6.97;;